• Join FlightAware (Why Join?)
  • Login
  • US Flag 
05:47PM EDT


 

Airport Tracker/Info


-or-


 

Live Flight TrackerFlight Track Log ✈ ENY3120 ✈ 18-Aug-2014 ✈ CYYZ - KORD

Flight Track Log - Related Links

Times and Time Zones

All times are in EDT time to prevent confusion due to time zone crossing. See the ENY3120 flight status page for this flight to view local times or setup timezone preferences in your user account.

Time Position Orientation Groundspeed Altitude Reporting Facility
EDT Latitude Longitude Course Direction KTS MPH feet Rate Location/Type
05:17PM 43.6667 -79.6333 245° Southwest 40 46 1,000  Level Toronto Center
05:18PM 43.6333 -79.7000 235° Southwest 220 253 3,300 2,280 Climbing Toronto Center
05:19PM 43.6000 -79.7667 235° Southwest 230 265 5,600 1,680 Climbing Toronto Center
05:20PM 43.5833 -79.8667 257° West 250 288 6,700 1,260 Climbing Toronto Center
05:21PM 43.6000 -79.9500 285° West 270 311 8,200 1,740 Climbing Toronto Center
05:22PM 43.7000 -80.1915 270° West  Level FlightAware Approximate
05:22PM 43.6333 -80.0500 295° West 270 311 10,200  Level Toronto Center
05:23PM 43.7084 -80.3084 277° West  Level FlightAware Approximate
05:23PM 43.6500 -80.1667 281° West 300 345 11,800  Level Toronto Center
05:24PM 43.6621 -79.7470 245° Southwest  Level FlightAware Approximate
05:24PM 43.6833 -80.2833 292° West 330 380 12,900  Level Toronto Center
05:25PM 43.7167 -80.4167 289° West 350 403 14,100 1,200 Climbing Toronto Center
05:26PM 43.7333 -80.5500 280° West 360 414 15,400 1,200 Climbing Toronto Center
05:27PM 43.7167 -80.7000 261° West 360 414 16,500 1,200 Climbing Toronto Center
05:28PM 43.6667 -80.8333 243° Southwest 370 426 17,800 1,200 Climbing Toronto Center
05:29PM 43.6333 -80.9667 251° West 370 426 18,900 1,200 Climbing Toronto Center
05:30PM 43.6000 -81.1000 251° West 370 426 20,200 1,500 Climbing Toronto Center
05:31PM 43.5833 -81.2167 259° West 370 426 21,900 1,740 Climbing Toronto Center
05:32PM 43.5500 -81.3667 253° West 360 414 23,700 1,740 Climbing Toronto Center
05:33PM 43.5333 -81.5000 260° West 350 403 25,400 1,380 Climbing Toronto Center
05:34PM 43.5000 -81.6167 249° West 350 403 26,500 1,140 Climbing Toronto Center
05:35PM 43.4667 -81.7500 251° West 360 414 27,700 720 Climbing Toronto Center
05:36PM 43.4500 -81.8833 260° West 370 426 28,000 120 Climbing Toronto Center
05:37PM 43.4000 -82.0167 243° Southwest 380 437 28,000  Level Toronto Center
05:38PM 43.3667 -82.1500 251° West 380 437 28,000  Level Toronto Center
05:39PM 43.3333 -82.3167 255° West 380 437 28,000  Level Toronto Center
05:40PM 43.3167 -82.4333 259° West 380 437 28,000  Level Toronto Center
05:41PM 43.2667 -82.5833 245° Southwest 380 437 28,000  Level Toronto Center
05:42PM 43.2381 -82.6453 238° Southwest 382 440 28,000  Level Cleveland Center
05:43PM 43.1442 -82.7200 210° Southwest 386 444 28,000  Level Cleveland Center
05:44PM 43.0517 -82.7939 210° Southwest 386 444 28,000  Level Cleveland Center
05:45PM 42.9467 -82.8922 214° Southwest 388 447 28,000  Level Cleveland Center
05:46PM 42.9139 -83.0244 251° West 377 434 28,000  Level Cleveland Center
05:47PM 42.9497 -83.1575 290° West 378 435 28,000  Level Cleveland Center
05:48PM 42.9911 -83.2878 294° West 378 435 28,000  Level Cleveland Center
05:49PM 43.0342 -83.4181 294° West 378 435 28,000  Level Cleveland Center
05:50PM 43.0861 -83.5756 294° West 378 435 28,000  Level Cleveland Center
05:51PM 43.0900 -83.7147 272° West 377 434 28,000  Level Cleveland Center
05:52PM 43.0603 -83.8511 253° West 376 433 28,000  Level Cleveland Center
05:53PM 43.0264 -83.9933 252° West 392 451 28,000  Level Cleveland Center
05:55PM 42.9897 -84.1431 252° West 413 475 28,000  Level Cleveland Center
05:56PM 42.9458 -84.3283 252° West 426 490 28,000  Level Cleveland Center
05:57PM 42.9111 -84.4708 252° West 432 497 28,000  Level Cleveland Center
05:58PM 42.8778 -84.6286 254° West 435 501 28,000  Level Cleveland Center
05:59PM 42.8628 -84.7883 263° West 427 491 28,000  Level Cleveland Center
06:00PM 42.8431 -84.9783 262° West 426 490 28,000  Level Cleveland Center
06:01PM 42.8267 -85.1356 262° West 423 487 28,000  Level Cleveland Center
06:02PM 42.8086 -85.2933 261° West 422 486 28,000 -120 Level Cleveland Center
06:03PM 42.7911 -85.4553 262° West 425 489 27,800 -1,020 Descending Cleveland Center
06:04PM 42.7650 -85.6178 258° West 437 503 25,900 -1,920 Descending Cleveland Center
06:05PM 42.7364 -85.7744 256° West 428 493 23,900 -2,160 Descending Cleveland Center
06:06PM 42.7033 -85.9567 256° West 415 478 21,500 -1,920 Descending Cleveland Center
06:07PM 42.6769 -86.1006 256° West 395 455 20,000 -720 Descending Cleveland Center
06:08PM 42.6511 -86.2425 256° West 391 450 20,000 -360 Level Cleveland Center
06:09PM 42.6250 -86.3850 256° West 390 449 19,300 -1,380 Descending Cleveland Center
06:10PM 42.5914 -86.5542 255° West 386 444 16,900 -2,100 Descending Chicago Center
06:11PM 42.5619 -86.7172 256° West 372 428 14,500 -2,160 Descending Chicago Center
06:12PM 42.5278 -86.8461 250° West 369 425 12,500 -1,860 Descending Chicago Center
06:13PM 42.4939 -86.9728 250° West 362 417 10,700 -1,260 Descending Chicago Center
06:14PM 42.4600 -87.0917 249° West 343 395 10,000 -360 Descending Chicago Center
06:16PM 42.4275 -87.2056 249° West 324 373 10,000 -600 Level Chicago Center
06:17PM 42.4022 -87.3033 251° West 278 320 8,800 -1,500 Descending Chicago Center
06:18PM 42.3706 -87.4158 249° West 276 318 7,000 -1,800 Descending Chicago Center
06:19PM 42.3083 -87.4533 204° Southwest 271 312 5,200 -1,020 Descending Chicago Center
06:20PM 42.2369 -87.4303 167° South 269 310 5,000 -480 Descending Chicago Center
06:21PM 42.1603 -87.4075 168° South 265 305 4,300 -480 Descending Chicago Center
06:22PM 42.0881 -87.3997 175° South 263 303 4,000 -180 Descending Chicago Center
06:23PM 42.0206 -87.4083 185° South 258 297 4,000  Level Chicago Center
06:24PM 42.0003 -87.4936 252° West 224 258 4,000  Level Chicago Center
06:25PM 42.0014 -87.5733 271° West 216 249 4,000 -60 Level Chicago Center
06:26PM 42.0028 -87.6625 271° West 220 253 3,900 -480 Descending Chicago Center
06:27PM 42.0022 -87.7344 269° West 198 228 3,000 -900 Descending Chicago Center
06:28PM 42.0022 -87.8106 270° West 194 223 2,100 -900 Descending Chicago Center
06:29PM 42.0031 -87.8647 271° West 151 174 1,200 -600 Descending Chicago Center
06:30PM 42.0033 -87.9153 270° West 142 163 900 -300 Descending Chicago Center